Time;durP1;ratioP1;P1;durP2;ratioP2;P2;SDS_P1;SDS_P2;PMS_P1;PMS_P2;Temp;Humidity;BMP_temperature;BMP_pressure;BME280_temperature;BME280_humidity;BME280_pressure;Samples;Min_cycle;Max_cycle;Signal;HPM_P1;HPM_P2
2021/07/22 00:01:37;;;;;;;10.85;7.88;;;;;;;;;;5097496;28;20541;-77
2021/07/22 00:04:03;;;;;;;8.05;7.25;;;;;;;;;;5097244;28;20050;-77
2021/07/22 00:06:29;;;;;;;10.13;6.65;;;;;;;;;;5097371;28;20469;-77
2021/07/22 00:08:55;;;;;;;8.63;7.82;;;;;;;;;;5097105;28;20028;-77
2021/07/22 00:11:21;;;;;;;8.90;7.18;;;;;;;;;;5096966;28;20028;-77
2021/07/22 00:13:47;;;;;;;8.68;6.40;;;;;;;;;;5096781;28;20032;-77
2021/07/22 00:16:14;;;;;;;7.90;7.10;;;;;;;;;;5097307;28;20058;-77
2021/07/22 00:18:41;;;;;;;11.05;7.07;;;;;;;;;;5097425;28;20024;-77
2021/07/22 00:21:07;;;;;;;8.68;7.15;;;;;;;;;;5097136;28;20493;-77
2021/07/22 00:23:33;;;;;;;7.88;7.10;;;;;;;;;;5097150;28;20492;-77
2021/07/22 00:26:03;;;;;;;7.38;6.63;;;;;;;;;;5096204;28;20449;-77
2021/07/22 00:28:29;;;;;;;7.20;6.60;;;;;;;;;;5096608;28;20526;-78
2021/07/22 00:30:55;;;;;;;6.72;6.13;;;;;;;;;;5097019;28;20024;-77
2021/07/22 00:33:21;;;;;;;6.93;6.32;;;;;;;;;;5096690;28;20036;-77
2021/07/22 00:35:47;;;;;;;7.53;6.63;;;;;;;;;;5096621;28;20054;-77
2021/07/22 00:38:14;;;;;;;7.30;6.60;;;;;;;;;;5096791;28;20028;-77
2021/07/22 00:40:44;;;;;;;10.90;7.03;;;;;;;;;;5096625;28;20066;-77
2021/07/22 00:43:10;;;;;;;7.70;6.90;;;;;;;;;;5096379;28;20032;-77
2021/07/22 00:45:36;;;;;;;7.68;6.93;;;;;;;;;;5096735;28;20024;-76
2021/07/22 00:48:02;;;;;;;12.80;5.75;;;;;;;;;;5096801;28;20028;-77
2021/07/22 00:50:29;;;;;;;8.65;6.82;;;;;;;;;;5096395;28;20051;-76
2021/07/22 00:52:55;;;;;;;7.80;7.00;;;;;;;;;;5096199;28;20056;-76
2021/07/22 00:55:25;;;;;;;9.48;7.75;;;;;;;;;;5096302;28;20024;-76
2021/07/22 00:57:51;;;;;;;13.85;7.50;;;;;;;;;;5095741;28;20059;-76
2021/07/22 01:00:17;;;;;;;6.72;6.07;;;;;;;;;;5096292;28;20024;-77
2021/07/22 01:02:43;;;;;;;7.60;6.07;;;;;;;;;;5096879;28;20020;-77
2021/07/22 01:05:09;;;;;;;7.50;6.80;;;;;;;;;;5095948;28;20020;-77
2021/07/22 01:07:36;;;;;;;7.13;6.53;;;;;;;;;;5096266;28;20071;-77
2021/07/22 01:10:02;;;;;;;8.05;7.22;;;;;;;;;;5096060;28;20023;-77
2021/07/22 01:12:28;;;;;;;6.45;5.85;;;;;;;;;;5095786;28;20063;-77
2021/07/22 01:14:54;;;;;;;7.38;6.68;;;;;;;;;;5095829;28;20047;-77
2021/07/22 01:17:24;;;;;;;7.18;6.10;;;;;;;;;;5096095;28;20372;-77
2021/07/22 01:19:50;;;;;;;7.30;5.97;;;;;;;;;;5095840;28;20073;-77
2021/07/22 01:22:16;;;;;;;7.57;6.88;;;;;;;;;;5096095;28;20067;-77
2021/07/22 01:24:42;;;;;;;7.13;6.43;;;;;;;;;;5095711;28;20028;-77
2021/07/22 01:27:09;;;;;;;7.47;6.72;;;;;;;;;;5095389;28;20076;-77
2021/07/22 01:29:35;;;;;;;7.90;7.07;;;;;;;;;;5095886;28;20027;-77
2021/07/22 01:32:04;;;;;;;6.63;5.97;;;;;;;;;;5095529;28;20028;-77
2021/07/22 01:34:30;;;;;;;7.07;6.38;;;;;;;;;;5095710;28;20381;-77
2021/07/22 01:36:57;;;;;;;10.27;6.18;;;;;;;;;;5095187;28;20021;-77
2021/07/22 01:39:23;;;;;;;8.27;6.50;;;;;;;;;;5095381;28;20027;-77
2021/07/22 01:41:49;;;;;;;7.80;7.07;;;;;;;;;;5095006;28;20032;-77
2021/07/22 01:44:16;;;;;;;7.13;6.43;;;;;;;;;;5096160;28;20059;-77
2021/07/22 01:46:42;;;;;;;7.45;6.78;;;;;;;;;;5095479;28;20035;-77
2021/07/22 01:49:08;;;;;;;7.05;6.35;;;;;;;;;;5095571;28;20020;-77
2021/07/22 01:51:34;;;;;;;7.20;6.30;;;;;;;;;;5095445;28;20031;-77
2021/07/22 01:54:00;;;;;;;6.63;6.03;;;;;;;;;;5094861;28;20048;-77
2021/07/22 01:56:26;;;;;;;7.63;6.07;;;;;;;;;;5095140;28;20583;-77
2021/07/22 01:58:52;;;;;;;6.70;6.10;;;;;;;;;;5095236;28;20385;-77
2021/07/22 02:01:18;;;;;;;5.70;5.20;;;;;;;;;;5095117;28;20079;-77
2021/07/22 02:03:44;;;;;;;10.48;7.32;;;;;;;;;;5094695;28;20039;-77
2021/07/22 02:06:12;;;;;;;8.35;6.95;;;;;;;;;;5094986;28;20028;-77
2021/07/22 02:08:38;;;;;;;7.57;6.65;;;;;;;;;;5095079;28;20110;-77
2021/07/22 02:11:04;;;;;;;10.18;6.32;;;;;;;;;;5094774;28;20134;-77
2021/07/22 02:13:30;;;;;;;9.45;7.28;;;;;;;;;;5094676;28;20084;-77
2021/07/22 02:15:56;;;;;;;7.25;6.55;;;;;;;;;;5094665;28;20031;-77
2021/07/22 02:18:22;;;;;;;6.97;6.28;;;;;;;;;;5095451;28;20030;-77
2021/07/22 02:20:49;;;;;;;8.98;7.25;;;;;;;;;;5094939;28;20021;-77
2021/07/22 02:23:15;;;;;;;7.60;6.80;;;;;;;;;;5094610;28;20028;-77
2021/07/22 02:25:41;;;;;;;10.27;6.63;;;;;;;;;;5094160;28;20469;-78
2021/07/22 02:28:07;;;;;;;8.90;6.68;;;;;;;;;;5095298;28;20031;-77
2021/07/22 02:30:33;;;;;;;8.27;6.20;;;;;;;;;;5094807;28;20461;-77
2021/07/22 02:33:00;;;;;;;7.80;6.00;;;;;;;;;;5094671;28;20508;-77
2021/07/22 02:35:26;;;;;;;7.45;6.15;;;;;;;;;;5094633;28;20101;-77
2021/07/22 02:37:52;;;;;;;5.50;5.00;;;;;;;;;;5094534;28;20055;-77
2021/07/22 02:40:18;;;;;;;7.85;6.15;;;;;;;;;;5094549;28;20393;-77
2021/07/22 02:42:44;;;;;;;7.15;6.55;;;;;;;;;;5094592;28;20021;-77
2021/07/22 02:45:10;;;;;;;6.95;6.18;;;;;;;;;;5094651;28;20035;-77
2021/07/22 02:47:36;;;;;;;10.27;7.22;;;;;;;;;;5094393;28;20105;-77
2021/07/22 02:50:03;;;;;;;8.27;6.50;;;;;;;;;;5094634;28;20028;-78
2021/07/22 02:52:29;;;;;;;7.13;5.95;;;;;;;;;;5094171;28;20135;-77
2021/07/22 02:54:55;;;;;;;11.55;6.15;;;;;;;;;;5094176;28;20028;-77
2021/07/22 02:57:21;;;;;;;7.10;6.38;;;;;;;;;;5094716;28;20020;-77
2021/07/22 02:59:47;;;;;;;7.03;6.10;;;;;;;;;;5094363;28;20028;-77
2021/07/22 03:02:13;;;;;;;7.70;6.00;;;;;;;;;;5094429;28;20028;-77
2021/07/22 03:04:39;;;;;;;8.40;6.40;;;;;;;;;;5094347;28;20028;-77
2021/07/22 03:07:05;;;;;;;6.80;5.75;;;;;;;;;;5094169;28;20024;-77
2021/07/22 03:09:31;;;;;;;8.07;7.10;;;;;;;;;;5093987;28;20119;-76
2021/07/22 03:11:58;;;;;;;6.90;6.30;;;;;;;;;;5094036;28;20571;-76
2021/07/22 03:14:24;;;;;;;24.30;7.22;;;;;;;;;;5094859;28;20032;-75
2021/07/22 03:16:50;;;;;;;7.85;7.13;;;;;;;;;;5094529;28;20524;-76
2021/07/22 03:19:16;;;;;;;10.13;7.57;;;;;;;;;;5094040;28;20393;-76
2021/07/22 03:21:42;;;;;;;11.30;8.60;;;;;;;;;;5093715;28;20115;-76
2021/07/22 03:24:08;;;;;;;19.80;10.60;;;;;;;;;;5093867;28;20024;-78
2021/07/22 03:26:34;;;;;;;12.90;10.02;;;;;;;;;;5094503;28;20160;-77
2021/07/22 03:29:00;;;;;;;16.02;10.25;;;;;;;;;;5094043;28;20066;-77
2021/07/22 03:31:26;;;;;;;18.05;10.45;;;;;;;;;;5094299;28;20021;-78
2021/07/22 03:33:52;;;;;;;14.27;9.90;;;;;;;;;;5093783;28;20054;-77
2021/07/22 03:36:18;;;;;;;30.13;10.98;;;;;;;;;;5094117;28;20043;-77
2021/07/22 03:38:44;;;;;;;17.33;9.98;;;;;;;;;;5093958;28;20113;-78
2021/07/22 03:41:15;;;;;;;20.23;11.30;;;;;;;;;;5094367;28;20028;-77
2021/07/22 03:43:41;;;;;;;22.42;10.02;;;;;;;;;;5093998;28;20453;-78
2021/07/22 03:46:07;;;;;;;13.48;9.48;;;;;;;;;;5094064;28;20028;-78
2021/07/22 03:48:33;;;;;;;18.27;10.63;;;;;;;;;;5094055;28;20043;-78
2021/07/22 03:50:59;;;;;;;22.05;10.15;;;;;;;;;;5093845;28;20496;-78
2021/07/22 03:53:25;;;;;;;13.65;10.40;;;;;;;;;;5094011;28;20485;-78
2021/07/22 03:55:51;;;;;;;15.60;8.95;;;;;;;;;;5093519;28;20064;-78
2021/07/22 03:58:18;;;;;;;16.60;10.25;;;;;;;;;;5093804;28;20024;-78
2021/07/22 04:00:44;;;;;;;13.25;11.23;;;;;;;;;;5096623;28;20035;-78
2021/07/22 04:03:10;;;;;;;12.85;7.90;;;;;;;;;;5097406;28;20068;-77
2021/07/22 04:05:36;;;;;;;15.20;8.98;;;;;;;;;;5097572;28;20377;-77
2021/07/22 04:08:02;;;;;;;14.35;8.57;;;;;;;;;;5096610;28;20043;-76
2021/07/22 04:10:28;;;;;;;12.15;8.68;;;;;;;;;;5097331;28;20450;-77
2021/07/22 04:12:58;;;;;;;12.57;8.80;;;;;;;;;;5097269;28;20121;-76
2021/07/22 04:15:24;;;;;;;15.98;8.43;;;;;;;;;;5097421;28;20024;-77
2021/07/22 04:17:50;;;;;;;12.25;8.38;;;;;;;;;;5096968;28;20035;-77
2021/07/22 04:20:17;;;;;;;10.40;7.82;;;;;;;;;;5097456;28;20422;-77
2021/07/22 04:22:43;;;;;;;9.25;7.32;;;;;;;;;;5096738;28;20046;-77
2021/07/22 04:25:09;;;;;;;10.40;7.22;;;;;;;;;;5097055;28;20429;-76
2021/07/22 04:27:35;;;;;;;13.77;7.43;;;;;;;;;;5096924;28;20063;-77
2021/07/22 04:30:02;;;;;;;8.35;7.28;;;;;;;;;;5096679;28;20031;-78
2021/07/22 04:32:28;;;;;;;8.52;7.55;;;;;;;;;;5096711;28;20052;-77
2021/07/22 04:34:55;;;;;;;8.95;7.57;;;;;;;;;;5090410;28;20047;-76
2021/07/22 04:37:21;;;;;;;9.50;8.60;;;;;;;;;;5092105;28;20061;-77
2021/07/22 04:39:47;;;;;;;10.05;8.10;;;;;;;;;;5097795;28;20028;-79
2021/07/22 04:42:13;;;;;;;10.07;7.28;;;;;;;;;;5097621;28;20032;-78
2021/07/22 04:44:39;;;;;;;7.82;7.05;;;;;;;;;;5097561;28;20088;-83
2021/07/22 04:47:05;;;;;;;7.68;6.85;;;;;;;;;;5095744;28;20466;-81
2021/07/22 04:49:31;;;;;;;8.02;6.63;;;;;;;;;;5076222;28;20039;-80
2021/07/22 04:51:58;;;;;;;8.93;6.88;;;;;;;;;;5076493;28;20031;-76
2021/07/22 04:54:24;;;;;;;10.80;9.68;;;;;;;;;;5077169;28;20108;-76
2021/07/22 04:56:50;;;;;;;11.00;7.82;;;;;;;;;;5076643;28;20028;-76
2021/07/22 04:59:16;;;;;;;9.25;7.03;;;;;;;;;;5075867;28;20020;-76
2021/07/22 05:01:42;;;;;;;8.50;6.72;;;;;;;;;;5076329;28;20028;-77
2021/07/22 05:04:09;;;;;;;8.02;6.63;;;;;;;;;;5076906;28;20035;-77
2021/07/22 05:06:35;;;;;;;8.23;7.28;;;;;;;;;;5076405;28;20433;-77
2021/07/22 05:09:01;;;;;;;7.20;6.50;;;;;;;;;;5091093;28;20141;-76
2021/07/22 05:11:27;;;;;;;12.43;7.72;;;;;;;;;;5096840;28;20028;-78
2021/07/22 05:13:53;;;;;;;7.25;6.63;;;;;;;;;;5096430;28;20039;-77
2021/07/22 05:16:21;;;;;;;9.55;6.72;;;;;;;;;;5096298;28;20024;-79
2021/07/22 05:18:47;;;;;;;7.07;6.35;;;;;;;;;;5081001;28;20489;-77
2021/07/22 05:21:13;;;;;;;8.68;7.10;;;;;;;;;;5075829;28;20474;-77
2021/07/22 05:23:41;;;;;;;11.38;7.30;;;;;;;;;;5075675;28;20059;-75
2021/07/22 05:26:10;;;;;;;8.05;6.20;;;;;;;;;;5076034;28;20052;-73
2021/07/22 05:28:36;;;;;;;9.18;6.78;;;;;;;;;;5086986;28;20028;-76
2021/07/22 05:31:10;;;;;;;6.85;6.22;;;;;;;;;;5095293;28;20500;-73
2021/07/22 05:33:36;;;;;;;9.32;6.53;;;;;;;;;;5095657;28;20032;-73
2021/07/22 05:36:03;;;;;;;6.75;6.05;;;;;;;;;;5096314;28;20024;-72
2021/07/22 05:38:30;;;;;;;7.82;6.53;;;;;;;;;;5082593;28;20033;-72
2021/07/22 05:40:58;;;;;;;12.05;7.55;;;;;;;;;;5075885;28;20025;-73
2021/07/22 05:43:24;;;;;;;22.17;9.52;;;;;;;;;;5075003;28;20017;-76
2021/07/22 05:45:50;;;;;;;82.40;73.95;;;;;;;;;;5074416;28;20388;-73
2021/07/22 05:48:17;;;;;;;150.45;135.90;;;;;;;;;;5083843;28;20369;-76
2021/07/22 05:50:43;;;;;;;111.63;99.57;;;;;;;;;;5093684;28;20032;-76
2021/07/22 05:53:09;;;;;;;86.63;77.38;;;;;;;;;;5094583;28;20087;-76
2021/07/22 05:55:35;;;;;;;66.18;59.65;;;;;;;;;;5094491;28;20024;-75
2021/07/22 05:58:01;;;;;;;66.93;59.92;;;;;;;;;;5093879;28;20078;-74
2021/07/22 06:00:27;;;;;;;54.65;49.72;;;;;;;;;;5094361;28;20481;-75
2021/07/22 06:02:53;;;;;;;50.30;45.30;;;;;;;;;;5085145;28;20390;-75
2021/07/22 06:05:19;;;;;;;43.17;38.72;;;;;;;;;;5075152;28;20050;-74
2021/07/22 06:07:46;;;;;;;42.58;38.15;;;;;;;;;;5074202;28;20070;-73
2021/07/22 06:10:12;;;;;;;47.67;36.95;;;;;;;;;;5076409;28;20044;-75
2021/07/22 06:12:39;;;;;;;41.05;36.63;;;;;;;;;;5078197;28;20035;-75
2021/07/22 06:15:05;;;;;;;39.75;32.50;;;;;;;;;;5094249;28;20097;-73
2021/07/22 06:17:34;;;;;;;35.15;31.00;;;;;;;;;;5078960;28;20055;-74
2021/07/22 06:20:00;;;;;;;33.15;29.63;;;;;;;;;;5073547;28;20028;-77
2021/07/22 06:22:26;;;;;;;29.75;26.65;;;;;;;;;;5073943;28;20078;-76
2021/07/22 06:24:52;;;;;;;37.63;25.98;;;;;;;;;;5074368;28;20020;-75
2021/07/22 06:27:18;;;;;;;27.05;21.45;;;;;;;;;;5074231;28;20028;-75
2021/07/22 06:29:45;;;;;;;23.10;20.88;;;;;;;;;;5073960;28;20450;-76
2021/07/22 06:32:11;;;;;;;26.65;17.88;;;;;;;;;;5073782;28;20398;-75
2021/07/22 06:34:37;;;;;;;18.80;16.90;;;;;;;;;;5073640;28;20024;-75
2021/07/22 06:37:03;;;;;;;18.45;16.48;;;;;;;;;;5074395;28;20051;-78
2021/07/22 06:39:35;;;;;;;17.60;14.15;;;;;;;;;;5073254;28;20109;-74
2021/07/22 06:42:01;;;;;;;;;;;;;;;;;;5074169;28;20059;-73
2021/07/22 06:44:28;;;;;;;14.63;13.15;;;;;;;;;;5073717;28;20262;-73
2021/07/22 06:46:54;;;;;;;14.73;12.82;;;;;;;;;;5073567;28;20028;-76
2021/07/22 06:49:20;;;;;;;12.75;11.55;;;;;;;;;;5074257;28;20025;-74
2021/07/22 06:51:48;;;;;;;15.82;12.02;;;;;;;;;;5073351;28;20119;-76
2021/07/22 06:54:14;;;;;;;11.82;10.38;;;;;;;;;;5074438;28;20103;-74
2021/07/22 06:56:40;;;;;;;12.18;10.70;;;;;;;;;;5073773;28;20025;-74
2021/07/22 06:59:06;;;;;;;11.98;10.73;;;;;;;;;;5074007;28;20029;-74
2021/07/22 07:01:32;;;;;;;13.18;9.45;;;;;;;;;;5073650;28;20016;-75
2021/07/22 07:03:58;;;;;;;11.70;10.50;;;;;;;;;;5073485;28;20098;-75
2021/07/22 07:06:24;;;;;;;18.63;10.02;;;;;;;;;;5074309;28;20044;-75
2021/07/22 07:08:51;;;;;;;12.43;9.10;;;;;;;;;;5074087;28;20025;-75
2021/07/22 07:11:17;;;;;;;10.50;9.02;;;;;;;;;;5073826;28;20028;-75
2021/07/22 07:13:43;;;;;;;13.57;9.65;;;;;;;;;;5073451;28;20478;-75
2021/07/22 07:16:09;;;;;;;15.77;9.20;;;;;;;;;;5073781;28;20032;-74
2021/07/22 07:18:35;;;;;;;16.98;9.93;;;;;;;;;;5073886;28;20039;-77
2021/07/22 07:21:04;;;;;;;15.32;9.15;;;;;;;;;;5075638;28;20115;-75
2021/07/22 07:23:31;;;;;;;26.65;10.32;;;;;;;;;;5075794;28;20021;-78
2021/07/22 07:25:57;;;;;;;11.10;9.98;;;;;;;;;;5075164;28;20024;-76
2021/07/22 07:28:23;;;;;;;20.88;9.02;;;;;;;;;;5074746;28;20033;-78
2021/07/22 07:30:49;;;;;;;16.63;7.88;;;;;;;;;;5073278;28;20021;-75
2021/07/22 07:33:15;;;;;;;11.40;8.32;;;;;;;;;;5073479;28;20127;-76
2021/07/22 07:35:41;;;;;;;14.63;7.70;;;;;;;;;;5075993;28;20370;-76
2021/07/22 07:38:08;;;;;;;12.05;8.00;;;;;;;;;;5077775;28;20029;-76
2021/07/22 07:40:34;;;;;;;9.77;7.18;;;;;;;;;;5077567;28;20025;-75
2021/07/22 07:43:00;;;;;;;12.45;7.57;;;;;;;;;;5077257;28;20040;-76
2021/07/22 07:45:26;;;;;;;15.80;8.88;;;;;;;;;;5077086;28;20035;-78
2021/07/22 07:47:52;;;;;;;12.88;7.35;;;;;;;;;;5077043;28;20028;-76
2021/07/22 07:50:19;;;;;;;25.63;8.40;;;;;;;;;;5078454;28;20035;-79
2021/07/22 07:52:45;;;;;;;11.18;7.40;;;;;;;;;;5078142;28;20048;-77
2021/07/22 07:55:12;;;;;;;12.48;7.28;;;;;;;;;;5078290;28;20020;-75
2021/07/22 07:57:38;;;;;;;12.25;7.15;;;;;;;;;;5078468;28;20025;-81
2021/07/22 08:00:04;;;;;;;10.98;8.15;;;;;;;;;;5078757;28;20115;-77
2021/07/22 08:02:30;;;;;;;13.02;7.78;;;;;;;;;;5079675;28;20028;-83
2021/07/22 08:04:57;;;;;;;11.85;7.55;;;;;;;;;;5080000;28;20025;-77
2021/07/22 08:07:25;;;;;;;11.88;7.30;;;;;;;;;;5078530;28;20099;-77
2021/07/22 08:09:52;;;;;;;9.15;6.50;;;;;;;;;;5078343;28;20025;-82
2021/07/22 08:12:18;;;;;;;10.25;6.90;;;;;;;;;;5078727;28;20035;-86
2021/07/22 08:14:44;;;;;;;18.25;7.03;;;;;;;;;;5080851;28;20016;-82
2021/07/22 08:17:13;;;;;;;11.52;7.93;;;;;;;;;;5089059;28;20050;-80
2021/07/22 08:19:39;;;;;;;7.18;6.25;;;;;;;;;;5079809;28;20025;-79
2021/07/22 08:22:05;;;;;;;19.90;6.90;;;;;;;;;;5080888;28;20425;-81
2021/07/22 08:24:31;;;;;;;13.20;6.15;;;;;;;;;;5079489;28;20031;-76
2021/07/22 08:26:58;;;;;;;8.80;7.88;;;;;;;;;;5086537;28;20031;-78
2021/07/22 08:29:24;;;;;;;13.50;8.38;;;;;;;;;;5077815;28;20382;-78
2021/07/22 08:31:50;;;;;;;7.35;6.63;;;;;;;;;;5077704;28;20025;-76
2021/07/22 08:34:17;;;;;;;7.32;6.63;;;;;;;;;;5078385;28;20123;-81
2021/07/22 08:36:43;;;;;;;8.07;6.18;;;;;;;;;;5078274;28;20043;-78
2021/07/22 08:39:09;;;;;;;16.40;7.07;;;;;;;;;;5079094;28;20095;-79
2021/07/22 08:41:36;;;;;;;8.13;7.25;;;;;;;;;;5078257;28;20580;-79
2021/07/22 08:44:02;;;;;;;13.82;7.15;;;;;;;;;;5079001;28;20033;-86
2021/07/22 08:46:29;;;;;;;6.72;6.05;;;;;;;;;;5081550;28;20480;-76
2021/07/22 08:48:55;;;;;;;8.90;6.97;;;;;;;;;;5097237;28;20024;-77
2021/07/22 08:51:21;;;;;;;9.55;6.97;;;;;;;;;;5099158;28;20020;-79
2021/07/22 08:53:47;;;;;;;8.43;6.55;;;;;;;;;;5100041;28;20051;-87
2021/07/22 08:56:13;;;;;;;7.88;6.72;;;;;;;;;;5099087;28;20059;-79
2021/07/22 08:58:39;;;;;;;7.82;5.97;;;;;;;;;;5099264;28;20021;-76
2021/07/22 09:01:06;;;;;;;9.32;7.20;;;;;;;;;;5097851;28;20490;-77
2021/07/22 09:03:33;;;;;;;8.13;6.55;;;;;;;;;;5096685;28;20028;-77
2021/07/22 09:05:59;;;;;;;11.40;6.13;;;;;;;;;;5101033;28;20114;-75
2021/07/22 09:08:25;;;;;;;6.70;5.88;;;;;;;;;;5099889;28;20386;-75
2021/07/22 09:11:06;;;;;;;8.43;6.53;;;;;;;;;;5096203;28;20026;-77
2021/07/22 09:13:32;;;;;;;7.50;5.75;;;;;;;;;;5098204;28;20054;-79
2021/07/22 09:15:58;;;;;;;10.80;5.82;;;;;;;;;;5097972;28;20423;-77
2021/07/22 09:18:25;;;;;;;7.55;5.93;;;;;;;;;;5096004;28;20032;-79
2021/07/22 09:20:52;;;;;;;6.95;6.25;;;;;;;;;;5095859;28;20020;-74
2021/07/22 09:23:19;;;;;;;11.10;6.22;;;;;;;;;;5095111;28;20063;-77
2021/07/22 09:25:46;;;;;;;6.80;5.90;;;;;;;;;;5095322;28;20389;-77
2021/07/22 09:28:13;;;;;;;8.00;5.63;;;;;;;;;;5095747;28;20028;-76
2021/07/22 09:30:39;;;;;;;6.15;5.55;;;;;;;;;;5095541;28;20031;-76
2021/07/22 09:33:05;;;;;;;7.15;6.45;;;;;;;;;;5095688;28;20036;-77
2021/07/22 09:35:35;;;;;;;6.22;5.72;;;;;;;;;;5095250;28;20107;-74
2021/07/22 09:38:02;;;;;;;18.23;5.95;;;;;;;;;;5095073;28;20027;-74
2021/07/22 09:40:33;;;;;;;6.57;5.43;;;;;;;;;;5094801;28;20032;-75
2021/07/22 09:42:59;;;;;;;6.10;5.50;;;;;;;;;;5095496;28;20103;-74
2021/07/22 09:45:26;;;;;;;9.18;5.65;;;;;;;;;;5095123;28;20089;-74
2021/07/22 09:47:54;;;;;;;12.18;5.80;;;;;;;;;;5094766;28;20477;-76
2021/07/22 09:50:20;;;;;;;23.00;6.70;;;;;;;;;;5095518;28;20122;-79
2021/07/22 09:52:47;;;;;;;19.77;7.07;;;;;;;;;;5094566;28;20052;-79
2021/07/22 09:55:29;;;;;;;24.85;6.43;;;;;;;;;;5095104;28;20055;-76
2021/07/22 09:57:57;;;;;;;19.55;6.70;;;;;;;;;;5094154;28;20052;-74
2021/07/22 10:00:24;;;;;;;17.33;6.60;;;;;;;;;;5094302;28;20032;-76
2021/07/22 10:02:50;;;;;;;22.73;6.97;;;;;;;;;;5094514;28;20110;-76
2021/07/22 10:05:16;;;;;;;21.77;6.25;;;;;;;;;;5094606;28;20032;-74
2021/07/22 10:07:42;;;;;;;18.20;6.47;;;;;;;;;;5094166;28;20020;-74
2021/07/22 10:10:10;;;;;;;29.05;7.60;;;;;;;;;;5094598;28;20028;-73
2021/07/22 10:12:36;;;;;;;29.02;7.15;;;;;;;;;;5094509;28;20378;-75
2021/07/22 10:15:02;;;;;;;37.53;7.47;;;;;;;;;;5094670;28;20020;-73
2021/07/22 10:17:31;;;;;;;22.75;6.68;;;;;;;;;;5094355;28;20020;-72
2021/07/22 10:19:58;;;;;;;23.58;7.55;;;;;;;;;;5094291;28;20032;-74
2021/07/22 10:22:24;;;;;;;20.23;7.28;;;;;;;;;;5094550;28;20031;-73
2021/07/22 10:24:51;;;;;;;16.58;7.82;;;;;;;;;;5094694;28;20472;-73
2021/07/22 10:27:18;;;;;;;24.88;6.88;;;;;;;;;;5094457;28;20024;-73
2021/07/22 10:29:44;;;;;;;10.07;7.55;;;;;;;;;;5094314;28;20449;-73
2021/07/22 10:32:10;;;;;;;17.77;7.85;;;;;;;;;;5093984;28;20085;-74
2021/07/22 10:34:36;;;;;;;11.52;5.93;;;;;;;;;;5094563;28;20023;-76
2021/07/22 10:37:02;;;;;;;8.93;6.38;;;;;;;;;;5094156;28;20024;-73
2021/07/22 10:39:48;;;;;;;10.32;6.50;;;;;;;;;;5094740;28;20024;-72
2021/07/22 10:42:34;;;;;;;17.55;7.05;;;;;;;;;;5093588;28;20028;-75
2021/07/22 10:45:00;;;;;;;14.18;7.78;;;;;;;;;;5093491;28;20477;-74
2021/07/22 10:47:26;;;;;;;8.43;6.78;;;;;;;;;;5094040;28;20369;-71
2021/07/22 10:49:52;;;;;;;10.10;6.57;;;;;;;;;;5093979;28;20031;-73
2021/07/22 10:52:19;;;;;;;17.35;6.70;;;;;;;;;;5094734;28;20101;-74
2021/07/22 10:54:47;;;;;;;15.77;6.97;;;;;;;;;;5093735;28;20024;-73
2021/07/22 10:57:33;;;;;;;11.75;6.82;;;;;;;;;;5093261;28;20031;-72
2021/07/22 10:59:59;;;;;;;12.52;6.22;;;;;;;;;;5092238;28;20036;-72
2021/07/22 11:02:41;;;;;;;23.05;7.78;;;;;;;;;;5094270;28;20043;-73
2021/07/22 11:05:07;;;;;;;;;;;;;;;;;;5094499;28;20027;-73
2021/07/22 11:07:34;;;;;;;12.00;6.13;;;;;;;;;;5093869;28;19962;-71
2021/07/22 11:10:00;;;;;;;7.63;6.30;;;;;;;;;;5097024;28;20035;-72
2021/07/22 11:12:44;;;;;;;11.75;6.10;;;;;;;;;;5097521;28;20036;-73
2021/07/22 11:15:12;;;;;;;8.95;5.30;;;;;;;;;;5098144;28;20024;-73
2021/07/22 11:17:38;;;;;;;10.45;6.50;;;;;;;;;;5098065;28;20028;-75
2021/07/22 11:20:24;;;;;;;8.13;6.78;;;;;;;;;;5098213;28;20028;-73
2021/07/22 11:22:50;;;;;;;9.60;5.88;;;;;;;;;;5096223;28;20381;-74
2021/07/22 11:25:17;;;;;;;8.05;6.35;;;;;;;;;;5097549;28;20111;-74
2021/07/22 11:27:44;;;;;;;8.52;6.30;;;;;;;;;;5097309;28;20073;-74
2021/07/22 11:30:11;;;;;;;11.15;5.78;;;;;;;;;;5098559;28;20028;-72
2021/07/22 11:32:37;;;;;;;7.22;6.13;;;;;;;;;;5097268;28;20036;-74
2021/07/22 11:35:03;;;;;;;7.10;6.38;;;;;;;;;;5098036;28;20028;-74
2021/07/22 11:37:29;;;;;;;10.48;6.35;;;;;;;;;;5096937;28;20103;-76
2021/07/22 11:39:55;;;;;;;6.93;6.22;;;;;;;;;;5097514;28;20034;-72
2021/07/22 11:42:21;;;;;;;24.40;6.45;;;;;;;;;;5096797;28;20442;-73
2021/07/22 11:45:01;;;;;;;8.23;6.22;;;;;;;;;;5097747;28;20107;-75
2021/07/22 11:47:30;;;;;;;15.65;6.35;;;;;;;;;;5096985;28;20439;-76
2021/07/22 11:49:56;;;;;;;10.13;6.53;;;;;;;;;;5084914;28;20027;-74
2021/07/22 11:52:26;;;;;;;8.13;5.65;;;;;;;;;;5096349;28;20059;-75
2021/07/22 11:55:08;;;;;;;7.97;6.60;;;;;;;;;;5081959;28;20108;-75
2021/07/22 11:57:38;;;;;;;9.07;5.78;;;;;;;;;;5077616;28;20086;-76
2021/07/22 12:00:12;;;;;;;11.70;6.95;;;;;;;;;;5076113;28;20029;-75
2021/07/22 12:02:43;;;;;;;6.60;5.93;;;;;;;;;;5076310;28;20029;-75
2021/07/22 12:05:09;;;;;;;17.03;7.00;;;;;;;;;;5077911;28;20038;-76
2021/07/22 12:07:35;;;;;;;11.15;6.93;;;;;;;;;;5078388;28;20740;-75
2021/07/22 12:10:01;;;;;;;6.30;5.78;;;;;;;;;;5083372;28;20484;-76
2021/07/22 12:12:27;;;;;;;7.35;6.05;;;;;;;;;;5096344;28;20363;-74
2021/07/22 12:15:09;;;;;;;8.00;6.15;;;;;;;;;;5097002;28;20060;-74
2021/07/22 12:17:36;;;;;;;8.07;5.65;;;;;;;;;;5077595;28;20071;-72
2021/07/22 12:20:02;;;;;;;8.90;6.55;;;;;;;;;;5074058;28;20028;-72
2021/07/22 12:22:29;;;;;;;9.10;5.72;;;;;;;;;;5076665;28;20028;-77
2021/07/22 12:25:09;;;;;;;7.63;6.38;;;;;;;;;;5076110;28;20028;-73
2021/07/22 12:27:37;;;;;;;6.57;5.57;;;;;;;;;;5075808;28;20025;-72
2021/07/22 12:30:06;;;;;;;10.70;5.90;;;;;;;;;;5081367;28;20109;-73
2021/07/22 12:32:32;;;;;;;8.50;5.35;;;;;;;;;;5096101;28;20498;-74
2021/07/22 12:34:58;;;;;;;11.10;6.30;;;;;;;;;;5095884;28;20028;-75
2021/07/22 12:37:44;;;;;;;7.00;6.32;;;;;;;;;;5096423;28;20433;-77
2021/07/22 12:40:11;;;;;;;10.52;6.25;;;;;;;;;;5086751;28;20029;-77
2021/07/22 12:42:38;;;;;;;8.90;6.30;;;;;;;;;;5075728;28;20421;-76
2021/07/22 12:45:19;;;;;;;6.43;5.38;;;;;;;;;;5076288;28;20070;-74
2021/07/22 12:47:46;;;;;;;6.70;5.53;;;;;;;;;;5077222;28;20044;-77
2021/07/22 12:50:27;;;;;;;7.03;6.32;;;;;;;;;;5082271;28;20036;-77
2021/07/22 12:52:53;;;;;;;8.63;5.23;;;;;;;;;;5075744;28;20051;-75
2021/07/22 12:55:35;;;;;;;87.50;12.45;;;;;;;;;;5075554;28;20039;-73
2021/07/22 12:58:02;;;;;;;141.10;22.30;;;;;;;;;;5075238;28;20055;-74
2021/07/22 13:00:28;;;;;;;69.68;15.43;;;;;;;;;;5085369;28;20028;-75
2021/07/22 13:02:58;;;;;;;65.63;15.32;;;;;;;;;;5074519;28;20031;-74
2021/07/22 13:05:25;;;;;;;54.53;13.85;;;;;;;;;;5074974;28;20074;-74
2021/07/22 13:07:51;;;;;;;42.67;11.68;;;;;;;;;;5074559;28;20478;-74
2021/07/22 13:10:17;;;;;;;44.78;13.23;;;;;;;;;;5074992;28;20085;-74
2021/07/22 13:12:43;;;;;;;50.17;12.88;;;;;;;;;;5074492;28;20386;-72
2021/07/22 13:15:10;;;;;;;49.05;11.10;;;;;;;;;;5075308;28;20033;-72
2021/07/22 13:17:39;;;;;;;42.83;11.27;;;;;;;;;;5074649;28;20024;-72
2021/07/22 13:20:07;;;;;;;44.67;12.82;;;;;;;;;;5074583;28;20078;-74
2021/07/22 13:22:33;;;;;;;25.48;10.52;;;;;;;;;;5074920;28;20036;-74
2021/07/22 13:24:59;;;;;;;47.22;11.93;;;;;;;;;;5075195;28;20052;-74
2021/07/22 13:27:25;;;;;;;27.23;9.00;;;;;;;;;;5075294;28;20074;-74
2021/07/22 13:29:51;;;;;;;31.92;10.02;;;;;;;;;;5074851;28;20035;-74
2021/07/22 13:32:17;;;;;;;31.92;10.90;;;;;;;;;;5073228;28;20028;-75
2021/07/22 13:34:45;;;;;;;25.88;9.32;;;;;;;;;;5074122;28;20121;-75
2021/07/22 13:37:11;;;;;;;27.83;9.85;;;;;;;;;;5074446;28;20025;-74
2021/07/22 13:39:37;;;;;;;24.42;9.70;;;;;;;;;;5074555;28;20040;-74
2021/07/22 13:42:06;;;;;;;26.42;9.68;;;;;;;;;;5073932;28;20067;-74
2021/07/22 13:44:32;;;;;;;51.30;9.98;;;;;;;;;;5074068;28;20024;-75
2021/07/22 13:46:58;;;;;;;27.17;10.40;;;;;;;;;;5073842;28;20025;-74
2021/07/22 13:49:26;;;;;;;22.15;9.07;;;;;;;;;;5073756;28;20385;-74
2021/07/22 13:51:52;;;;;;;23.67;8.50;;;;;;;;;;5073799;28;20107;-74
2021/07/22 13:54:18;;;;;;;21.42;8.68;;;;;;;;;;5074494;28;20119;-74
2021/07/22 13:56:44;;;;;;;18.30;8.07;;;;;;;;;;5073982;28;20028;-72
2021/07/22 13:59:10;;;;;;;19.33;9.13;;;;;;;;;;5073343;28;20025;-73
2021/07/22 14:01:37;;;;;;;21.67;7.25;;;;;;;;;;5073850;28;20115;-73
2021/07/22 14:04:03;;;;;;;13.70;7.18;;;;;;;;;;5073198;28;20029;-72
2021/07/22 14:06:29;;;;;;;16.60;8.68;;;;;;;;;;5074225;28;20024;-73
2021/07/22 14:08:55;;;;;;;22.65;9.95;;;;;;;;;;5073275;28;20032;-73
2021/07/22 14:11:21;;;;;;;34.15;13.07;;;;;;;;;;5073858;28;20021;-74
2021/07/22 14:13:48;;;;;;;39.15;14.25;;;;;;;;;;5071460;28;20119;-74
2021/07/22 14:16:14;;;;;;;46.65;15.32;;;;;;;;;;5073580;28;20466;-74
2021/07/22 14:18:40;;;;;;;43.40;17.05;;;;;;;;;;5073190;28;20020;-75
2021/07/22 14:21:07;;;;;;;47.13;16.40;;;;;;;;;;5073269;28;20027;-74
2021/07/22 14:23:33;;;;;;;34.20;14.23;;;;;;;;;;5073686;28;20083;-73
2021/07/22 14:25:59;;;;;;;28.83;14.98;;;;;;;;;;5073680;28;20033;-73
2021/07/22 14:28:25;;;;;;;45.88;15.95;;;;;;;;;;5073406;28;20108;-72
2021/07/22 14:30:51;;;;;;;55.97;18.90;;;;;;;;;;5073434;28;20028;-73
2021/07/22 14:33:17;;;;;;;54.08;20.70;;;;;;;;;;5073885;28;20583;-76